Time;durP1;ratioP1;P1;durP2;ratioP2;P2;SDS_P1;SDS_P2;PMS_P1;PMS_P2;Temp;Humidity;BMP_temperature;BMP_pressure;BME280_temperature;BME280_humidity;BME280_pressure;Samples;Min_cycle;Max_cycle;Signal;HPM_P1;HPM_P2
2022/06/05 00:01:01;;;;;;;16.52;13.75;;;11.00;99.90;;;;;;5038947;28;20530;-45
2022/06/05 00:03:44;;;;;;;19.02;14.27;;;10.90;99.90;;;;;;5034351;28;20154;-44
2022/06/05 00:06:39;;;;;;;17.88;12.85;;;11.00;99.90;;;;;;5041489;28;20052;-43
2022/06/05 00:09:17;;;;;;;19.50;15.10;;;10.90;99.90;;;;;;5024794;28;20140;-44
2022/06/05 00:12:10;;;;;;;16.35;14.52;;;10.90;99.90;;;;;;5026702;28;20411;-45
2022/06/05 00:14:37;;;;;;;;;;;10.90;99.90;;;;;;5042144;28;20100;-51
2022/06/05 00:17:11;;;;;;;15.77;13.40;;;10.90;99.90;;;;;;5023603;28;19931;-47
2022/06/05 00:19:40;;;;;;;18.10;14.43;;;10.90;99.90;;;;;;5041346;28;20563;-42
2022/06/05 00:22:06;;;;;;;17.92;13.65;;;10.90;99.90;;;;;;5041680;28;20044;-43
2022/06/05 00:24:35;;;;;;;16.10;14.23;;;10.90;99.90;;;;;;5041615;28;20098;-44
2022/06/05 00:27:11;;;;;;;15.88;12.70;;;10.90;99.90;;;;;;5041062;28;20087;-45
2022/06/05 00:30:00;;;;;;;15.57;13.98;;;10.90;99.90;;;;;;5022252;28;20140;-44
2022/06/05 00:32:42;;;;;;;19.95;14.60;;;10.80;99.90;;;;;;5005345;28;20052;-44
2022/06/05 00:35:11;;;;;;;16.02;14.23;;;10.80;99.90;;;;;;5017487;28;20063;-44
2022/06/05 00:38:04;;;;;;;22.80;14.43;;;10.80;99.90;;;;;;5041293;28;20068;-46
2022/06/05 00:40:40;;;;;;;21.23;14.32;;;10.90;99.90;;;;;;5019099;28;20057;-45
2022/06/05 00:43:10;;;;;;;18.13;14.20;;;10.90;99.90;;;;;;5022072;28;20057;-43
2022/06/05 00:45:39;;;;;;;17.92;14.57;;;10.90;99.90;;;;;;5018805;28;20554;-44
2022/06/05 00:48:07;;;;;;;19.95;14.98;;;10.90;99.90;;;;;;5022677;28;20060;-45
2022/06/05 00:50:34;;;;;;;16.48;14.18;;;10.90;99.90;;;;;;5041272;28;20053;-46
2022/06/05 00:53:02;;;;;;;22.02;14.80;;;10.80;99.90;;;;;;5041786;28;20049;-43
2022/06/05 00:55:35;;;;;;;18.45;14.10;;;10.80;99.90;;;;;;5022521;28;20049;-44
2022/06/05 00:58:01;;;;;;;15.05;13.40;;;10.90;99.90;;;;;;5022589;28;20045;-44
2022/06/05 01:00:33;;;;;;;19.20;14.35;;;10.90;99.90;;;;;;5020501;28;20162;-44
2022/06/05 01:03:02;;;;;;;22.92;14.18;;;10.90;99.90;;;;;;5040450;28;20111;-43
2022/06/05 01:05:29;;;;;;;17.90;14.30;;;10.90;99.90;;;;;;5040797;28;20053;-44
2022/06/05 01:07:56;;;;;;;17.60;14.77;;;10.90;99.90;;;;;;5041540;28;20045;-44
2022/06/05 01:10:35;;;;;;;16.45;14.23;;;10.90;99.90;;;;;;5022458;28;20050;-47
2022/06/05 01:13:13;;;;;;;17.80;14.48;;;10.90;99.90;;;;;;5039334;28;20041;-44
2022/06/05 01:16:01;;;;;;;19.55;13.75;;;10.80;99.90;;;;;;5040717;28;20506;-43
2022/06/05 01:18:57;;;;;;;20.15;15.88;;;10.80;99.90;;;;;;5022568;28;20981;-44
2022/06/05 01:21:47;;;;;;;16.42;14.18;;;10.80;99.90;;;;;;5042085;28;20771;-46
2022/06/05 01:24:35;;;;;;;21.83;15.10;;;10.90;99.90;;;;;;5044812;28;20136;-46
2022/06/05 01:27:04;;;;;;;18.48;14.48;;;10.90;99.90;;;;;;5040136;28;20053;-45
2022/06/05 01:29:43;;;;;;;17.08;14.18;;;10.90;99.90;;;;;;5041436;28;20049;-45
2022/06/05 01:32:17;;;;;;;21.13;15.63;;;10.90;99.90;;;;;;5022278;28;20057;-45
2022/06/05 01:34:56;;;;;;;16.17;14.10;;;10.90;99.90;;;;;;5040674;28;20057;-47
2022/06/05 01:37:30;;;;;;;19.67;14.65;;;10.90;99.90;;;;;;5019231;28;20337;-44
2022/06/05 01:40:20;;;;;;;16.85;14.60;;;10.90;99.90;;;;;;5039889;28;20049;-45
2022/06/05 01:42:51;;;;;;;18.92;14.93;;;10.90;99.90;;;;;;5022172;28;20137;-43
2022/06/05 01:45:26;;;;;;;16.63;13.75;;;10.90;99.90;;;;;;5036293;28;20370;-45
2022/06/05 01:47:54;;;;;;;21.38;15.77;;;10.90;99.90;;;;;;5025328;28;20060;-43
2022/06/05 01:50:46;;;;;;;17.70;15.88;;;11.00;99.90;;;;;;5020277;28;20076;-45
2022/06/05 01:53:21;;;;;;;18.75;14.85;;;11.00;99.90;;;;;;5044447;28;20049;-43
2022/06/05 01:56:16;;;;;;;19.50;15.15;;;10.90;99.90;;;;;;5043332;28;20543;-43
2022/06/05 01:58:53;;;;;;;17.20;14.95;;;11.00;99.90;;;;;;5025528;28;20052;-44
2022/06/05 02:01:36;;;;;;;20.73;16.38;;;10.90;99.90;;;;;;5021409;28;20050;-45
2022/06/05 02:04:23;;;;;;;21.15;15.55;;;10.90;99.90;;;;;;5022619;28;20574;-43
2022/06/05 02:06:58;;;;;;;17.73;15.18;;;10.90;99.90;;;;;;5020187;28;20107;-44
2022/06/05 02:09:33;;;;;;;20.35;16.23;;;10.90;99.90;;;;;;5018459;28;20559;-43
2022/06/05 02:11:59;;;;;;;22.60;17.05;;;10.90;99.90;;;;;;5024750;28;20095;-44
2022/06/05 02:14:25;;;;;;;20.90;15.48;;;11.00;99.90;;;;;;5022356;28;20555;-45
2022/06/05 02:16:52;;;;;;;21.15;15.95;;;11.00;99.90;;;;;;5023472;28;20492;-43
2022/06/05 02:19:21;;;;;;;17.08;15.18;;;11.00;99.90;;;;;;5023446;28;20522;-45
2022/06/05 02:21:49;;;;;;;21.40;16.27;;;11.00;99.90;;;;;;5019904;28;20599;-43
2022/06/05 02:24:15;;;;;;;19.55;15.52;;;11.00;99.90;;;;;;5024461;28;20132;-45
2022/06/05 02:26:41;;;;;;;21.63;16.80;;;11.00;99.90;;;;;;5022931;28;20056;-45
2022/06/05 02:29:22;;;;;;;23.65;17.02;;;11.00;99.90;;;;;;5023605;28;20049;-44
2022/06/05 02:31:53;;;;;;;21.42;15.13;;;11.00;99.90;;;;;;5021928;28;20049;-44
2022/06/05 02:34:31;;;;;;;23.42;15.95;;;11.00;99.90;;;;;;5020022;28;20781;-44
2022/06/05 02:37:08;;;;;;;18.10;15.98;;;11.00;99.90;;;;;;5019731;28;20118;-43
2022/06/05 02:39:56;;;;;;;23.52;15.90;;;11.10;99.90;;;;;;5023317;28;20065;-44
2022/06/05 02:42:37;;;;;;;17.27;15.57;;;11.00;99.90;;;;;;5019217;28;20835;-45
2022/06/05 02:45:12;;;;;;;27.00;17.80;;;11.10;99.90;;;;;;5019497;28;20053;-44
2022/06/05 02:48:12;;;;;;;20.67;15.13;;;11.10;99.90;;;;;;5023604;28;20049;-44
2022/06/05 02:50:45;;;;;;;20.80;16.40;;;11.10;99.90;;;;;;5019669;28;20489;-43
2022/06/05 02:53:13;;;;;;;18.25;16.33;;;11.10;99.90;;;;;;5023204;28;20050;-45
2022/06/05 02:55:39;;;;;;;19.58;15.15;;;11.10;99.90;;;;;;5023116;28;20049;-42
2022/06/05 02:58:06;;;;;;;21.23;16.08;;;11.10;99.90;;;;;;5022802;28;20045;-44
2022/06/05 03:00:34;;;;;;;21.48;15.48;;;11.10;99.90;;;;;;5029019;28;20118;-43
2022/06/05 03:05:45;;;;;;;18.38;16.50;;;11.10;99.90;;;;;;5042425;28;20064;-45
2022/06/05 03:08:14;;;;;;;25.05;16.08;;;11.10;99.90;;;;;;5042699;28;20110;-43
2022/06/05 03:10:41;;;;;;;22.38;16.63;;;11.10;99.90;;;;;;5021369;28;20145;-44
2022/06/05 03:13:07;;;;;;;23.17;16.73;;;11.10;99.90;;;;;;5042472;28;20041;-44
2022/06/05 03:15:34;;;;;;;21.33;16.92;;;11.10;99.90;;;;;;5043003;28;20049;-44
2022/06/05 03:18:00;;;;;;;22.42;16.73;;;11.10;99.90;;;;;;5020729;28;20092;-43
2022/06/05 03:20:26;;;;;;;20.38;17.35;;;11.10;99.90;;;;;;5023135;28;20131;-47
2022/06/05 03:22:52;;;;;;;20.10;16.02;;;11.10;99.90;;;;;;5022029;28;20080;-44
2022/06/05 03:25:23;;;;;;;18.55;16.52;;;11.10;99.90;;;;;;5041878;28;20518;-44
2022/06/05 03:27:49;;;;;;;21.63;16.20;;;11.10;99.90;;;;;;5019743;28;20107;-46
2022/06/05 03:30:16;;;;;;;22.60;15.15;;;11.10;99.90;;;;;;5041501;28;20049;-45
2022/06/05 03:32:42;;;;;;;21.40;15.38;;;11.20;99.90;;;;;;5024160;28;20130;-44
2022/06/05 03:35:09;;;;;;;20.60;16.05;;;11.20;99.90;;;;;;5023499;28;20057;-44
2022/06/05 03:37:36;;;;;;;22.02;16.42;;;11.20;99.90;;;;;;5024447;28;20398;-46
2022/06/05 03:40:06;;;;;;;21.52;16.77;;;11.30;99.90;;;;;;5034517;28;20086;-44
2022/06/05 03:42:32;;;;;;;20.52;16.77;;;11.30;99.90;;;;;;5023693;28;20094;-44
2022/06/05 03:44:57;;;;;;;23.35;16.63;;;11.30;99.90;;;;;;5036611;28;20053;-44
2022/06/05 03:47:23;;;;;;;19.95;16.08;;;11.30;99.90;;;;;;5042781;28;20586;-46
2022/06/05 03:49:49;;;;;;;22.42;15.63;;;11.30;99.90;;;;;;5042811;28;20056;-45
2022/06/05 03:52:14;;;;;;;23.75;16.90;;;11.30;99.90;;;;;;5043984;28;20084;-45
2022/06/05 03:54:40;;;;;;;18.95;15.88;;;11.30;99.90;;;;;;5044484;28;20055;-44
2022/06/05 03:57:07;;;;;;;22.08;16.33;;;11.40;99.90;;;;;;5042612;28;20056;-48
2022/06/05 03:59:36;;;;;;;22.10;16.60;;;11.40;99.90;;;;;;5040192;28;20782;-44
2022/06/05 04:02:03;;;;;;;22.63;17.25;;;11.50;99.90;;;;;;5041745;28;20070;-46
2022/06/05 04:04:29;;;;;;;20.95;16.67;;;11.60;99.90;;;;;;5037172;28;20620;-45
2022/06/05 04:06:55;;;;;;;21.98;16.65;;;11.70;99.90;;;;;;5041592;28;20511;-45
2022/06/05 04:09:20;;;;;;;20.85;16.38;;;11.70;99.90;;;;;;5022639;28;20052;-44
2022/06/05 04:11:46;;;;;;;20.25;16.48;;;11.70;99.90;;;;;;5041418;28;20057;-45
2022/06/05 04:14:12;;;;;;;23.88;17.00;;;11.80;99.90;;;;;;5021049;28;20060;-43
2022/06/05 04:16:40;;;;;;;18.88;16.00;;;11.90;99.90;;;;;;5022716;28;20048;-45
2022/06/05 04:19:06;;;;;;;20.35;16.05;;;12.30;99.90;;;;;;5022059;28;20122;-44
2022/06/05 04:21:35;;;;;;;16.50;14.80;;;13.00;99.90;;;;;;5041191;28;20562;-45
2022/06/05 04:24:01;;;;;;;18.50;14.00;;;14.10;99.90;;;;;;5040194;28;20077;-44
2022/06/05 04:26:31;;;;;;;16.38;14.15;;;14.70;99.90;;;;;;5040837;28;20583;-44
2022/06/05 04:29:02;;;;;;;15.50;13.57;;;14.70;99.90;;;;;;5023412;28;20075;-44
2022/06/05 04:31:31;;;;;;;17.60;13.73;;;14.30;99.90;;;;;;5017684;28;20055;-45
2022/06/05 04:34:00;;;;;;;19.42;13.75;;;14.20;99.90;;;;;;5034678;28;20060;-43
2022/06/05 04:36:27;;;;;;;17.10;14.02;;;14.10;99.90;;;;;;5038996;28;20056;-44
2022/06/05 04:38:53;;;;;;;17.98;15.25;;;13.90;99.90;;;;;;5018393;28;20053;-43
2022/06/05 04:41:19;;;;;;;19.48;14.93;;;13.80;99.90;;;;;;5039218;28;20037;-45
2022/06/05 04:43:46;;;;;;;16.20;14.50;;;13.70;99.90;;;;;;5041244;28;20449;-46
2022/06/05 04:46:12;;;;;;;17.35;14.10;;;13.50;99.90;;;;;;5040294;28;20128;-43
2022/06/05 04:48:38;;;;;;;17.65;14.55;;;13.40;99.90;;;;;;5018953;28;20439;-44
2022/06/05 04:51:05;;;;;;;17.15;15.32;;;13.40;99.90;;;;;;5039184;28;20135;-44
2022/06/05 04:53:31;;;;;;;17.85;15.60;;;13.40;99.90;;;;;;5023196;28;20471;-44
2022/06/05 04:55:57;;;;;;;18.38;14.68;;;13.40;99.90;;;;;;5022614;28;20056;-45
2022/06/05 04:58:23;;;;;;;19.67;14.90;;;13.50;99.90;;;;;;5021390;28;20197;-44
2022/06/05 05:00:48;;;;;;;20.30;14.57;;;13.70;99.90;;;;;;5041603;28;20080;-45
2022/06/05 05:03:14;;;;;;;16.75;14.90;;;13.80;99.90;;;;;;5041925;28;20088;-42
2022/06/05 05:05:41;;;;;;;20.60;14.73;;;14.00;99.90;;;;;;5042262;28;20052;-41
2022/06/05 05:08:08;;;;;;;21.13;14.43;;;14.00;99.90;;;;;;5045038;28;20052;-44
2022/06/05 05:10:33;;;;;;;18.58;15.40;;;14.00;99.90;;;;;;5023058;28;20045;-44
2022/06/05 05:13:00;;;;;;;20.75;15.95;;;14.00;99.90;;;;;;5041199;28;20053;-45
2022/06/05 05:15:26;;;;;;;17.77;14.27;;;13.90;99.90;;;;;;5006511;28;20045;-45
2022/06/05 05:17:52;;;;;;;17.02;14.85;;;13.80;99.90;;;;;;5040899;28;20135;-46
2022/06/05 05:20:18;;;;;;;16.77;14.98;;;13.70;99.90;;;;;;5040904;28;20096;-46
2022/06/05 05:22:43;;;;;;;21.02;15.07;;;13.80;99.90;;;;;;5023270;28;20096;-44
2022/06/05 05:25:11;;;;;;;19.13;14.52;;;13.80;99.90;;;;;;5042424;28;20060;-45
2022/06/05 05:27:39;;;;;;;18.80;15.23;;;13.80;99.90;;;;;;5009527;28;20139;-44
2022/06/05 05:30:06;;;;;;;17.70;15.00;;;13.80;99.90;;;;;;5017499;28;20065;-44
2022/06/05 05:32:32;;;;;;;17.67;14.63;;;13.90;99.90;;;;;;5021708;28;20163;-43
2022/06/05 05:34:58;;;;;;;16.58;14.65;;;13.90;99.90;;;;;;5023738;28;20042;-45
2022/06/05 05:37:24;;;;;;;18.33;15.02;;;13.90;99.90;;;;;;5017423;28;20107;-45
2022/06/05 05:42:34;;;;;;;20.60;14.93;;;13.90;99.90;;;;;;5024596;28;20115;-44
2022/06/05 05:45:05;;;;;;;16.00;14.32;;;14.00;99.90;;;;;;5024481;28;20037;-44
2022/06/05 05:47:34;;;;;;;15.23;13.73;;;14.00;99.90;;;;;;5022981;28;20107;-41
2022/06/05 05:50:03;;;;;;;16.73;14.60;;;14.10;99.90;;;;;;5022489;28;20479;-42
2022/06/05 05:52:29;;;;;;;16.10;14.32;;;14.20;99.90;;;;;;5024663;28;20052;-44
2022/06/05 05:54:55;;;;;;;19.25;15.85;;;14.30;99.90;;;;;;5023639;28;20516;-44
2022/06/05 05:57:22;;;;;;;17.70;14.82;;;14.30;99.90;;;;;;5023538;28;20088;-45
2022/06/05 05:59:53;;;;;;;16.30;14.60;;;14.40;99.90;;;;;;5022488;28;20053;-46
2022/06/05 06:02:21;;;;;;;18.00;15.35;;;14.50;99.90;;;;;;5024698;28;20312;-43
2022/06/05 06:04:49;;;;;;;15.85;14.15;;;14.60;99.90;;;;;;5019627;28;20504;-44
2022/06/05 06:07:15;;;;;;;16.83;14.18;;;14.70;99.90;;;;;;5019859;28;20050;-44
2022/06/05 06:09:42;;;;;;;20.85;14.77;;;14.90;99.90;;;;;;5018489;28;20050;-44
2022/06/05 06:12:09;;;;;;;16.35;14.05;;;15.00;99.90;;;;;;5023337;28;20424;-43
2022/06/05 06:14:35;;;;;;;15.98;13.98;;;15.20;99.90;;;;;;5024758;28;20053;-44
2022/06/05 06:17:01;;;;;;;17.05;14.35;;;15.30;99.90;;;;;;5024766;28;20124;-46
2022/06/05 06:19:27;;;;;;;18.38;14.35;;;15.40;99.90;;;;;;5024925;28;20568;-44
2022/06/05 06:21:53;;;;;;;24.80;15.90;;;15.50;99.90;;;;;;5027455;28;20050;-48
2022/06/05 06:24:22;;;;;;;17.67;13.45;;;15.60;99.90;;;;;;5024791;28;20045;-47
2022/06/05 06:26:47;;;;;;;15.70;14.07;;;15.60;99.90;;;;;;5018990;28;20588;-46
2022/06/05 06:29:14;;;;;;;15.55;13.95;;;15.60;99.90;;;;;;5021746;28;20207;-48
2022/06/05 06:31:41;;;;;;;18.10;14.65;;;15.70;99.90;;;;;;5019070;28;20089;-43
2022/06/05 06:34:09;;;;;;;15.63;13.95;;;15.90;99.90;;;;;;5022634;28;20053;-44
2022/06/05 06:36:35;;;;;;;18.02;14.38;;;16.10;99.90;;;;;;5023479;28;20053;-43
2022/06/05 06:39:01;;;;;;;16.92;15.15;;;16.10;99.90;;;;;;5022545;28;20048;-42
2022/06/05 06:41:27;;;;;;;16.52;13.98;;;16.10;99.90;;;;;;5023135;28;20064;-42
2022/06/05 06:43:53;;;;;;;15.77;14.18;;;16.20;99.90;;;;;;5023941;28;20447;-41
2022/06/05 06:46:20;;;;;;;16.10;14.48;;;16.20;99.90;;;;;;5023099;28;20493;-42
2022/06/05 06:48:46;;;;;;;18.15;14.77;;;16.40;99.90;;;;;;5017974;28;20117;-42
2022/06/05 06:51:14;;;;;;;15.30;13.02;;;16.50;99.90;;;;;;5021496;28;20053;-43
2022/06/05 06:53:41;;;;;;;15.32;13.82;;;16.70;99.90;;;;;;5022059;28;20049;-42
2022/06/05 06:56:13;;;;;;;16.20;14.65;;;16.90;99.90;;;;;;5023123;28;20256;-45
2022/06/05 06:58:40;;;;;;;15.70;14.05;;;17.10;99.90;;;;;;5022511;28;20041;-44
2022/06/05 07:01:06;;;;;;;15.73;14.13;;;17.30;99.90;;;;;;5022525;28;20127;-42
2022/06/05 07:03:33;;;;;;;14.55;13.13;;;17.40;99.90;;;;;;5021651;28;20049;-42
2022/06/05 07:06:04;;;;;;;16.73;13.90;;;17.70;99.90;;;;;;5022969;28;20045;-42
2022/06/05 07:08:30;;;;;;;15.70;14.07;;;17.90;99.90;;;;;;5022507;28;20049;-42
2022/06/05 07:10:59;;;;;;;15.18;13.60;;;18.20;99.90;;;;;;5022766;28;21604;-43
2022/06/05 07:13:25;;;;;;;16.63;14.77;;;18.60;99.90;;;;;;5021994;28;20452;-43
2022/06/05 07:15:51;;;;;;;15.40;13.80;;;19.00;99.90;;;;;;5022890;28;20435;-45
2022/06/05 07:18:18;;;;;;;14.32;12.93;;;19.30;99.90;;;;;;5022656;28;20049;-43
2022/06/05 07:20:45;;;;;;;15.07;13.55;;;19.60;99.90;;;;;;5023458;28;20231;-42
2022/06/05 07:23:11;;;;;;;13.80;12.48;;;19.90;99.90;;;;;;5021689;28;20053;-45
2022/06/05 07:25:38;;;;;;;14.20;12.85;;;20.00;99.90;;;;;;5016152;28;20509;-43
2022/06/05 07:28:04;;;;;;;14.55;12.93;;;20.00;99.90;;;;;;5023053;28;20493;-43
2022/06/05 07:30:31;;;;;;;14.88;13.30;;;20.00;99.90;;;;;;5022351;28;20061;-43
2022/06/05 07:32:57;;;;;;;14.35;12.95;;;20.10;99.90;;;;;;5025146;28;20052;-43
2022/06/05 07:35:23;;;;;;;14.90;13.40;;;20.30;99.90;;;;;;5025829;28;20103;-46
2022/06/05 07:37:49;;;;;;;13.82;12.60;;;20.30;99.90;;;;;;5022841;28;20052;-44
2022/06/05 07:40:16;;;;;;;13.88;12.30;;;20.40;99.90;;;;;;5022223;28;20049;-46
2022/06/05 07:42:44;;;;;;;13.18;11.88;;;20.50;99.90;;;;;;5021452;28;20057;-42
2022/06/05 07:45:14;;;;;;;13.98;12.18;;;20.50;99.90;;;;;;5016307;28;20549;-43
2022/06/05 07:47:44;;;;;;;13.23;12.00;;;20.40;99.90;;;;;;5018766;28;20562;-43
2022/06/05 07:50:12;;;;;;;14.27;12.77;;;20.20;99.90;;;;;;5021182;28;20132;-45
2022/06/05 07:55:25;;;;;;;14.25;12.35;;;20.20;99.90;;;;;;5021903;28;20053;-43
2022/06/05 07:57:51;;;;;;;13.50;12.30;;;19.90;99.90;;;;;;5021112;28;20049;-44
2022/06/05 08:00:17;;;;;;;12.65;11.43;;;19.80;99.90;;;;;;5022070;28;20107;-42
2022/06/05 08:02:48;;;;;;;13.70;11.25;;;19.60;99.90;;;;;;5003302;28;20107;-42
2022/06/05 08:05:13;;;;;;;13.10;11.82;;;19.40;99.90;;;;;;5017801;28;20054;-44
2022/06/05 08:07:39;;;;;;;12.15;11.05;;;19.40;99.90;;;;;;5020696;28;20108;-44
2022/06/05 08:10:06;;;;;;;13.18;11.88;;;19.30;99.90;;;;;;5021634;28;20099;-43
2022/06/05 08:12:35;;;;;;;13.52;12.23;;;19.30;99.90;;;;;;5020033;28;20576;-44
2022/06/05 08:15:10;;;;;;;14.60;13.15;;;19.20;99.90;;;;;;5021174;28;20049;-43
2022/06/05 08:17:37;;;;;;;13.90;12.05;;;19.20;99.90;;;;;;5019811;28;20053;-43
2022/06/05 08:20:04;;;;;;;13.27;12.00;;;19.20;99.90;;;;;;5021579;28;20045;-42
2022/06/05 08:22:30;;;;;;;13.35;11.85;;;19.10;99.90;;;;;;5019094;28;20049;-42
2022/06/05 08:24:56;;;;;;;13.20;11.68;;;19.20;99.90;;;;;;5021077;28;20049;-44
2022/06/05 08:27:26;;;;;;;12.93;11.43;;;19.20;99.90;;;;;;5022230;28;20130;-43
2022/06/05 08:29:55;;;;;;;13.90;12.55;;;19.20;99.90;;;;;;5021908;28;20160;-43
2022/06/05 08:32:24;;;;;;;14.63;12.02;;;19.30;99.90;;;;;;5021539;28;20135;-43
2022/06/05 08:35:02;;;;;;;12.60;11.38;;;19.30;99.90;;;;;;5020808;28;20053;-43
2022/06/05 08:43:23;;;;;;;13.98;12.15;;;19.80;99.90;;;;;;5021871;28;20057;-43
2022/06/05 08:46:12;;;;;;;13.18;11.82;;;19.90;99.90;;;;;;5020562;28;20084;-44
2022/06/05 08:48:49;;;;;;;13.15;11.52;;;20.00;99.90;;;;;;5017477;28;20129;-44
2022/06/05 08:51:22;;;;;;;13.15;11.43;;;20.20;99.90;;;;;;5020335;28;20085;-45
2022/06/05 08:54:01;;;;;;;;;;;20.30;99.90;;;;;;5014386;28;20179;-43
2022/06/05 08:56:36;;;;;;;12.52;11.23;;;20.40;99.90;;;;;;5021781;28;20003;-46
2022/06/05 08:59:13;;;;;;;13.30;11.98;;;20.50;99.90;;;;;;5025977;28;20080;-45
2022/06/05 09:02:02;;;;;;;12.35;11.05;;;20.50;99.90;;;;;;5024523;28;20512;-43
2022/06/05 09:04:33;;;;;;;12.82;11.63;;;20.60;99.90;;;;;;5024933;28;20083;-45
2022/06/05 09:07:05;;;;;;;12.13;11.05;;;20.60;99.90;;;;;;5023358;28;20049;-45
2022/06/05 09:09:43;;;;;;;13.90;11.48;;;20.60;99.90;;;;;;5020424;28;20061;-43
2022/06/05 09:12:27;;;;;;;12.43;11.32;;;20.70;99.90;;;;;;5023214;28;20535;-43
2022/06/05 09:15:15;;;;;;;12.73;11.25;;;20.80;99.90;;;;;;5023282;28;20052;-43
2022/06/05 09:17:58;;;;;;;13.95;11.52;;;21.00;99.90;;;;;;5020344;28;20123;-42
2022/06/05 09:20:49;;;;;;;12.02;10.85;;;21.10;99.90;;;;;;5025332;28;20045;-42
2022/06/05 09:23:40;;;;;;;12.57;11.38;;;21.20;99.90;;;;;;5023649;28;20049;-42
2022/06/05 09:26:28;;;;;;;12.48;11.25;;;21.20;99.90;;;;;;5024012;28;20455;-43
2022/06/05 09:28:57;;;;;;;12.25;11.18;;;21.30;99.90;;;;;;5024896;28;20049;-44
2022/06/05 09:31:54;;;;;;;11.90;10.77;;;21.20;99.90;;;;;;5025361;28;20057;-43
2022/06/05 09:34:40;;;;;;;12.93;11.65;;;21.30;99.90;;;;;;5025051;28;20516;-43
2022/06/05 09:37:25;;;;;;;12.90;11.70;;;21.30;99.90;;;;;;5024311;28;20045;-44
2022/06/05 09:40:15;;;;;;;11.52;10.43;;;21.20;99.90;;;;;;5018876;28;20505;-42
2022/06/05 09:42:56;;;;;;;12.82;10.95;;;21.40;99.90;;;;;;5018708;28;20128;-44
2022/06/05 09:45:46;;;;;;;12.10;10.80;;;21.40;99.90;;;;;;5024137;28;20516;-43
2022/06/05 09:48:49;;;;;;;11.80;10.70;;;21.50;99.90;;;;;;5023643;28;20049;-43
2022/06/05 09:51:17;;;;;;;13.57;10.07;;;21.60;99.90;;;;;;5023832;28;20554;-45
2022/06/05 09:54:19;;;;;;;11.63;10.63;;;21.80;99.90;;;;;;5024431;28;20049;-44
2022/06/05 10:00:14;;;;;;;11.55;10.35;;;22.00;99.90;;;;;;5024490;28;20080;-44
2022/06/05 10:02:41;;;;;;;;;;;21.90;99.90;;;;;;5025220;28;20045;-43
2022/06/05 10:05:26;;;;;;;11.20;10.20;;;21.70;99.90;;;;;;5024590;28;19932;-42
2022/06/05 10:08:19;;;;;;;11.90;10.35;;;21.70;99.90;;;;;;5023549;28;20049;-43
2022/06/05 10:10:47;;;;;;;11.88;10.77;;;21.70;99.90;;;;;;5027070;28;20053;-44
2022/06/05 10:13:39;;;;;;;11.45;10.38;;;21.70;99.90;;;;;;5025242;28;20162;-47
2022/06/05 10:16:25;;;;;;;10.85;9.85;;;21.60;99.90;;;;;;5024016;28;20050;-46
2022/06/05 10:18:56;;;;;;;11.05;9.95;;;21.60;99.90;;;;;;5021869;28;20053;-46
2022/06/05 10:21:30;;;;;;;11.70;10.50;;;21.60;99.90;;;;;;5023693;28;20487;-43
2022/06/05 10:24:13;;;;;;;11.93;10.82;;;21.50;99.90;;;;;;5023815;28;20516;-43
2022/06/05 10:26:48;;;;;;;11.13;10.02;;;21.60;99.90;;;;;;5023818;28;20104;-45
2022/06/05 10:29:23;;;;;;;12.90;10.25;;;21.70;99.90;;;;;;5017656;28;20061;-45
2022/06/05 10:31:58;;;;;;;11.73;10.52;;;21.80;99.90;;;;;;5021045;28;20057;-44
2022/06/05 10:34:46;;;;;;;11.15;10.15;;;21.80;99.90;;;;;;5022961;28;20049;-42
2022/06/05 10:37:14;;;;;;;11.70;10.50;;;22.00;99.90;;;;;;5023350;28;20115;-44
2022/06/05 10:39:52;;;;;;;11.07;9.98;;;22.10;99.90;;;;;;5023424;28;20444;-45
2022/06/05 10:42:43;;;;;;;11.45;9.82;;;22.10;99.90;;;;;;5022811;28;20495;-43
2022/06/05 10:45:39;;;;;;;11.15;9.93;;;22.20;99.90;;;;;;5022239;28;20053;-42
2022/06/05 10:48:25;;;;;;;10.68;9.65;;;22.30;99.90;;;;;;4941261;29;20396;-45
2022/06/05 10:50:55;;;;;;;12.68;9.73;;;22.20;99.90;;;;;;4926107;29;20051;-43
2022/06/05 10:53:36;;;;;;;10.35;9.35;;;22.30;99.90;;;;;;4910830;29;20063;-45
2022/06/05 10:56:14;;;;;;;12.43;9.32;;;22.30;99.90;;;;;;4912285;29;20613;-45
2022/06/05 10:58:55;;;;;;;9.50;8.70;;;22.40;99.90;;;;;;4942328;29;20070;-43
2022/06/05 11:01:50;;;;;;;10.38;9.18;;;22.40;99.90;;;;;;4941192;29;20055;-43
2022/06/05 11:04:22;;;;;;;9.60;8.63;;;22.50;99.90;;;;;;4909603;29;20130;-45
2022/06/05 11:07:15;;;;;;;9.63;8.75;;;22.50;99.90;;;;;;4942165;29;20058;-43
2022/06/05 11:09:40;;;;;;;;;;;22.50;99.90;;;;;;4942578;29;20130;-43
2022/06/05 11:15:43;;;;;;;8.55;7.85;;;22.40;99.90;;;;;;4923877;29;20695;-44
2022/06/05 11:18:18;;;;;;;8.60;7.90;;;22.50;99.90;;;;;;4940262;28;20630;-46
2022/06/05 11:20:56;;;;;;;8.95;8.15;;;22.60;99.90;;;;;;4911767;29;20066;-43
2022/06/05 11:23:42;;;;;;;12.65;9.32;;;22.70;99.90;;;;;;4923277;29;20780;-45
2022/06/05 11:26:27;;;;;;;8.57;7.82;;;22.70;99.90;;;;;;5014615;28;20053;-44
2022/06/05 11:29:20;;;;;;;9.95;8.95;;;22.70;99.90;;;;;;5023000;28;20049;-44
2022/06/05 11:31:55;;;;;;;8.50;7.70;;;22.70;99.90;;;;;;5025514;28;20119;-43
2022/06/05 11:34:45;;;;;;;10.40;8.85;;;22.70;99.90;;;;;;5015915;28;20443;-44
2022/06/05 11:37:40;;;;;;;9.57;8.68;;;22.70;99.90;;;;;;5022880;28;20590;-45
2022/06/05 11:40:21;;;;;;;9.95;8.48;;;22.70;99.90;;;;;;5022079;28;20144;-48
2022/06/05 11:42:57;;;;;;;9.75;8.75;;;22.70;99.90;;;;;;5021333;28;20111;-46
2022/06/05 11:45:32;;;;;;;9.93;8.85;;;22.60;99.90;;;;;;5021901;28;20049;-44
2022/06/05 11:48:10;;;;;;;10.38;9.40;;;22.50;99.90;;;;;;5017024;28;20108;-44
2022/06/05 11:50:57;;;;;;;9.70;8.80;;;22.40;99.90;;;;;;5014623;28;20080;-44
2022/06/05 11:53:34;;;;;;;9.63;8.63;;;22.50;99.90;;;;;;5021919;28;20076;-45
2022/06/05 11:56:39;;;;;;;10.20;9.32;;;22.50;99.90;;;;;;5020559;28;20271;-43
2022/06/05 11:59:11;;;;;;;10.02;9.02;;;22.50;99.90;;;;;;5021425;28;20072;-43
2022/06/05 12:01:44;;;;;;;9.30;8.50;;;22.50;99.90;;;;;;5022064;28;20459;-44
2022/06/05 12:04:21;;;;;;;10.15;9.10;;;22.50;99.90;;;;;;5021944;28;20516;-44
2022/06/05 12:06:55;;;;;;;10.52;9.55;;;22.50;99.90;;;;;;5021446;28;20429;-43
2022/06/05 12:09:31;;;;;;;10.10;9.13;;;22.60;99.90;;;;;;5021661;28;20068;-42
2022/06/05 12:12:22;;;;;;;10.45;9.45;;;22.60;99.90;;;;;;5017143;28;20093;-44
2022/06/05 12:15:14;;;;;;;9.43;8.52;;;22.70;99.90;;;;;;5021423;28;20103;-44
2022/06/05 12:17:47;;;;;;;10.15;9.35;;;22.70;99.90;;;;;;5020957;28;20128;-44
2022/06/05 12:20:26;;;;;;;10.45;9.52;;;22.70;99.90;;;;;;5020750;28;20054;-45
2022/06/05 12:23:04;;;;;;;9.60;8.70;;;22.70;99.90;;;;;;5020888;28;20053;-43
2022/06/05 12:25:45;;;;;;;11.05;10.05;;;22.80;99.90;;;;;;5014696;28;20049;-43
2022/06/05 12:28:38;;;;;;;9.60;8.65;;;22.80;99.90;;;;;;5020709;28;20051;-43
2022/06/05 12:31:20;;;;;;;;;;;22.80;99.90;;;;;;5021010;28;20064;-45
2022/06/05 12:33:57;;;;;;;10.25;9.25;;;22.80;99.90;;;;;;5016892;28;19925;-43
2022/06/05 12:36:32;;;;;;;9.57;8.75;;;22.80;99.90;;;;;;5021342;28;20049;-45
2022/06/05 12:39:36;;;;;;;10.32;9.10;;;22.80;99.90;;;;;;5013652;28;20423;-43
2022/06/05 12:42:17;;;;;;;10.23;9.43;;;22.70;99.90;;;;;;5019419;28;20041;-44
2022/06/05 12:44:49;;;;;;;10.43;9.63;;;22.80;99.90;;;;;;5020096;28;20062;-46
2022/06/05 12:47:37;;;;;;;9.05;8.15;;;22.80;99.90;;;;;;5009018;28;20181;-45
2022/06/05 12:50:22;;;;;;;9.55;8.57;;;23.00;99.90;;;;;;5019462;28;20703;-42
2022/06/05 12:52:54;;;;;;;9.35;8.60;;;23.00;99.90;;;;;;5024301;28;20049;-43
2022/06/05 12:55:25;;;;;;;9.40;8.55;;;23.10;99.90;;;;;;5021123;28;20056;-45
2022/06/05 12:57:58;;;;;;;9.90;8.95;;;23.10;99.90;;;;;;5020112;28;20077;-45
2022/06/05 13:00:29;;;;;;;9.20;8.48;;;23.10;99.90;;;;;;5021827;28;20048;-44
2022/06/05 13:03:24;;;;;;;9.40;8.60;;;23.10;99.90;;;;;;5021471;28;20053;-44
2022/06/05 13:06:12;;;;;;;9.02;8.07;;;23.10;99.90;;;;;;5013700;28;20053;-44
2022/06/05 13:08:55;;;;;;;9.23;8.48;;;23.00;99.90;;;;;;5021228;28;20087;-45
2022/06/05 13:11:26;;;;;;;;;;;23.10;99.90;;;;;;5019631;28;20093;-44
2022/06/05 13:14:07;;;;;;;9.45;8.63;;;23.10;99.90;;;;;;5020588;28;19964;-44
2022/06/05 13:16:38;;;;;;;10.05;9.05;;;23.20;99.90;;;;;;5021158;28;20053;-44
2022/06/05 13:19:35;;;;;;;10.65;8.57;;;23.20;99.90;;;;;;5019658;28;20053;-45
2022/06/05 13:22:22;;;;;;;10.32;9.02;;;23.20;99.90;;;;;;5010631;28;20489;-44
2022/06/05 13:25:00;;;;;;;9.98;9.07;;;23.30;99.90;;;;;;5015752;28;20658;-43